sensor_id;sensor_type;location;lat;lon;timestamp;temperature;humidity
46562;DHT22;32289;42.688;23.330;2023-06-22T00:01:21;18.40;99.90
46562;DHT22;32289;42.688;23.330;2023-06-22T00:05:03;18.30;99.90
46562;DHT22;32289;42.688;23.330;2023-06-22T00:08:43;18.20;99.90
46562;DHT22;32289;42.688;23.330;2023-06-22T00:12:24;18.10;99.90
46562;DHT22;32289;42.688;23.330;2023-06-22T00:16:05;18.20;99.90
46562;DHT22;32289;42.688;23.330;2023-06-22T00:19:47;18.20;99.90
46562;DHT22;32289;42.688;23.330;2023-06-22T00:23:28;18.10;99.90
46562;DHT22;32289;42.688;23.330;2023-06-22T00:27:08;18.10;99.90
46562;DHT22;32289;42.688;23.330;2023-06-22T00:30:49;18.10;99.90
46562;DHT22;32289;42.688;23.330;2023-06-22T00:34:30;18.00;99.90
46562;DHT22;32289;42.688;23.330;2023-06-22T00:38:11;18.00;99.90
46562;DHT22;32289;42.688;23.330;2023-06-22T00:41:52;17.90;99.90
46562;DHT22;32289;42.688;23.330;2023-06-22T00:45:33;17.80;99.90
46562;DHT22;32289;42.688;23.330;2023-06-22T00:49:15;17.70;99.90
46562;DHT22;32289;42.688;23.330;2023-06-22T00:52:57;17.70;99.90
46562;DHT22;32289;42.688;23.330;2023-06-22T00:56:41;17.40;99.90
46562;DHT22;32289;42.688;23.330;2023-06-22T01:00:25;17.70;99.90
46562;DHT22;32289;42.688;23.330;2023-06-22T01:04:06;17.70;99.90
46562;DHT22;32289;42.688;23.330;2023-06-22T01:11:47;17.70;99.90
46562;DHT22;32289;42.688;23.330;2023-06-22T01:15:46;17.60;99.90
46562;DHT22;32289;42.688;23.330;2023-06-22T01:19:50;17.70;99.90
46562;DHT22;32289;42.688;23.330;2023-06-22T01:24:18;17.50;99.90
46562;DHT22;32289;42.688;23.330;2023-06-22T01:31:56;17.50;99.90
46562;DHT22;32289;42.688;23.330;2023-06-22T01:35:38;17.50;99.90
46562;DHT22;32289;42.688;23.330;2023-06-22T01:39:20;17.50;99.90
46562;DHT22;32289;42.688;23.330;2023-06-22T01:43:03;17.50;99.90
46562;DHT22;32289;42.688;23.330;2023-06-22T01:46:44;17.40;99.90
46562;DHT22;32289;42.688;23.330;2023-06-22T01:50:26;17.50;99.90
46562;DHT22;32289;42.688;23.330;2023-06-22T01:54:07;17.50;99.90
46562;DHT22;32289;42.688;23.330;2023-06-22T01:57:49;17.50;99.90
46562;DHT22;32289;42.688;23.330;2023-06-22T02:06:01;17.40;99.90
46562;DHT22;32289;42.688;23.330;2023-06-22T02:09:45;17.30;99.90
46562;DHT22;32289;42.688;23.330;2023-06-22T02:13:27;17.30;99.90
46562;DHT22;32289;42.688;23.330;2023-06-22T02:17:09;17.30;99.90
46562;DHT22;32289;42.688;23.330;2023-06-22T02:20:51;17.40;99.90
46562;DHT22;32289;42.688;23.330;2023-06-22T02:24:31;17.30;99.90
46562;DHT22;32289;42.688;23.330;2023-06-22T02:28:16;17.10;99.90
46562;DHT22;32289;42.688;23.330;2023-06-22T02:31:57;17.10;99.90
46562;DHT22;32289;42.688;23.330;2023-06-22T02:35:38;17.20;99.90
46562;DHT22;32289;42.688;23.330;2023-06-22T02:39:21;17.10;99.90
46562;DHT22;32289;42.688;23.330;2023-06-22T02:43:03;17.00;99.90
46562;DHT22;32289;42.688;23.330;2023-06-22T02:46:44;17.00;99.90
46562;DHT22;32289;42.688;23.330;2023-06-22T02:50:25;17.00;99.90
46562;DHT22;32289;42.688;23.330;2023-06-22T02:54:07;17.00;99.90
46562;DHT22;32289;42.688;23.330;2023-06-22T02:57:48;17.10;99.90
46562;DHT22;32289;42.688;23.330;2023-06-22T03:01:33;17.10;99.90
46562;DHT22;32289;42.688;23.330;2023-06-22T03:05:20;17.10;99.90
46562;DHT22;32289;42.688;23.330;2023-06-22T03:09:02;17.00;99.90
46562;DHT22;32289;42.688;23.330;2023-06-22T03:12:44;16.90;99.90
46562;DHT22;32289;42.688;23.330;2023-06-22T03:16:25;16.80;99.90
46562;DHT22;32289;42.688;23.330;2023-06-22T03:20:07;17.00;99.90
46562;DHT22;32289;42.688;23.330;2023-06-22T03:23:49;17.20;99.90
46562;DHT22;32289;42.688;23.330;2023-06-22T03:27:30;17.20;99.90
46562;DHT22;32289;42.688;23.330;2023-06-22T03:31:11;17.30;99.90
46562;DHT22;32289;42.688;23.330;2023-06-22T03:34:52;17.20;99.90
46562;DHT22;32289;42.688;23.330;2023-06-22T03:38:33;17.30;99.90
46562;DHT22;32289;42.688;23.330;2023-06-22T03:42:15;17.50;99.90
46562;DHT22;32289;42.688;23.330;2023-06-22T03:45:55;17.70;99.90
46562;DHT22;32289;42.688;23.330;2023-06-22T03:49:37;18.40;99.90
46562;DHT22;32289;42.688;23.330;2023-06-22T03:53:18;19.30;99.90
46562;DHT22;32289;42.688;23.330;2023-06-22T03:56:58;19.80;99.90
46562;DHT22;32289;42.688;23.330;2023-06-22T04:00:39;19.70;99.90
46562;DHT22;32289;42.688;23.330;2023-06-22T04:04:20;19.70;99.90
46562;DHT22;32289;42.688;23.330;2023-06-22T04:08:01;19.50;99.90
46562;DHT22;32289;42.688;23.330;2023-06-22T04:11:41;19.10;99.90
46562;DHT22;32289;42.688;23.330;2023-06-22T04:15:22;20.00;99.90
46562;DHT22;32289;42.688;23.330;2023-06-22T04:19:03;20.60;99.90
46562;DHT22;32289;42.688;23.330;2023-06-22T04:22:44;21.30;99.90
46562;DHT22;32289;42.688;23.330;2023-06-22T04:26:25;20.90;99.90
46562;DHT22;32289;42.688;23.330;2023-06-22T04:30:09;20.70;99.90
46562;DHT22;32289;42.688;23.330;2023-06-22T04:33:50;20.90;99.90
46562;DHT22;32289;42.688;23.330;2023-06-22T04:37:33;21.50;99.90
46562;DHT22;32289;42.688;23.330;2023-06-22T04:41:14;21.80;99.90
46562;DHT22;32289;42.688;23.330;2023-06-22T04:45:06;21.60;99.90
46562;DHT22;32289;42.688;23.330;2023-06-22T04:48:46;21.90;99.90
46562;DHT22;32289;42.688;23.330;2023-06-22T04:52:30;22.30;99.90
46562;DHT22;32289;42.688;23.330;2023-06-22T04:56:11;23.60;98.20
46562;DHT22;32289;42.688;23.330;2023-06-22T04:59:53;22.80;99.30
46562;DHT22;32289;42.688;23.330;2023-06-22T05:03:34;23.30;98.20
46562;DHT22;32289;42.688;23.330;2023-06-22T05:07:18;24.50;94.80
46562;DHT22;32289;42.688;23.330;2023-06-22T05:10:58;23.70;94.40
46562;DHT22;32289;42.688;23.330;2023-06-22T05:14:39;24.80;91.80
46562;DHT22;32289;42.688;23.330;2023-06-22T05:18:20;25.30;90.30
46562;DHT22;32289;42.688;23.330;2023-06-22T05:22:03;24.80;90.50
46562;DHT22;32289;42.688;23.330;2023-06-22T05:25:44;25.90;86.40
46562;DHT22;32289;42.688;23.330;2023-06-22T05:29:25;26.30;82.90
46562;DHT22;32289;42.688;23.330;2023-06-22T05:33:07;25.20;89.00
46562;DHT22;32289;42.688;23.330;2023-06-22T05:36:47;25.80;84.10
46562;DHT22;32289;42.688;23.330;2023-06-22T05:40:28;25.90;82.50
46562;DHT22;32289;42.688;23.330;2023-06-22T05:44:09;25.00;82.80
46562;DHT22;32289;42.688;23.330;2023-06-22T05:47:49;25.70;86.30
46562;DHT22;32289;42.688;23.330;2023-06-22T05:51:30;24.80;88.40
46562;DHT22;32289;42.688;23.330;2023-06-22T05:55:11;24.00;91.00
46562;DHT22;32289;42.688;23.330;2023-06-22T05:58:51;24.40;89.90
46562;DHT22;32289;42.688;23.330;2023-06-22T06:02:32;25.10;87.40
46562;DHT22;32289;42.688;23.330;2023-06-22T06:06:14;25.20;87.70
46562;DHT22;32289;42.688;23.330;2023-06-22T06:09:54;25.70;84.10
46562;DHT22;32289;42.688;23.330;2023-06-22T06:13:36;26.00;79.30
46562;DHT22;32289;42.688;23.330;2023-06-22T06:17:17;25.80;82.90
46562;DHT22;32289;42.688;23.330;2023-06-22T06:20:57;26.20;80.60
46562;DHT22;32289;42.688;23.330;2023-06-22T06:24:38;25.90;84.10
46562;DHT22;32289;42.688;23.330;2023-06-22T06:28:19;25.90;83.90
46562;DHT22;32289;42.688;23.330;2023-06-22T06:31:59;26.90;77.20
46562;DHT22;32289;42.688;23.330;2023-06-22T06:35:43;25.80;82.40
46562;DHT22;32289;42.688;23.330;2023-06-22T06:39:26;26.60;78.20
46562;DHT22;32289;42.688;23.330;2023-06-22T06:43:10;26.20;82.80
46562;DHT22;32289;42.688;23.330;2023-06-22T06:46:51;27.60;74.10
46562;DHT22;32289;42.688;23.330;2023-06-22T06:50:32;26.20;79.30
46562;DHT22;32289;42.688;23.330;2023-06-22T06:54:12;26.70;76.40
46562;DHT22;32289;42.688;23.330;2023-06-22T06:57:54;27.30;72.90
46562;DHT22;32289;42.688;23.330;2023-06-22T07:01:35;26.20;75.90
46562;DHT22;32289;42.688;23.330;2023-06-22T07:05:16;26.00;80.70
46562;DHT22;32289;42.688;23.330;2023-06-22T07:08:56;27.20;75.10
46562;DHT22;32289;42.688;23.330;2023-06-22T07:12:37;27.80;74.90
46562;DHT22;32289;42.688;23.330;2023-06-22T07:16:18;28.30;70.30
46562;DHT22;32289;42.688;23.330;2023-06-22T07:19:58;28.40;72.20
46562;DHT22;32289;42.688;23.330;2023-06-22T07:23:39;29.40;66.70
46562;DHT22;32289;42.688;23.330;2023-06-22T07:27:20;30.10;65.20
46562;DHT22;32289;42.688;23.330;2023-06-22T07:31:01;29.20;66.70
46562;DHT22;32289;42.688;23.330;2023-06-22T07:34:43;28.50;68.50
46562;DHT22;32289;42.688;23.330;2023-06-22T07:38:24;29.00;69.30
46562;DHT22;32289;42.688;23.330;2023-06-22T07:42:06;28.80;68.10
46562;DHT22;32289;42.688;23.330;2023-06-22T07:45:49;29.70;66.90
46562;DHT22;32289;42.688;23.330;2023-06-22T07:49:39;29.70;67.50
46562;DHT22;32289;42.688;23.330;2023-06-22T07:53:21;29.70;64.00
46562;DHT22;32289;42.688;23.330;2023-06-22T07:57:02;30.90;63.90
46562;DHT22;32289;42.688;23.330;2023-06-22T08:00:43;30.50;64.80
46562;DHT22;32289;42.688;23.330;2023-06-22T08:04:23;30.40;62.70
46562;DHT22;32289;42.688;23.330;2023-06-22T08:12:37;30.10;61.20
46562;DHT22;32289;42.688;23.330;2023-06-22T08:16:19;30.60;62.30
46562;DHT22;32289;42.688;23.330;2023-06-22T08:20:00;33.20;58.10
46562;DHT22;32289;42.688;23.330;2023-06-22T08:23:41;32.30;58.60
46562;DHT22;32289;42.688;23.330;2023-06-22T08:31:58;32.90;54.90
46562;DHT22;32289;42.688;23.330;2023-06-22T09:29:51;32.90;55.70
46562;DHT22;32289;42.688;23.330;2023-06-22T09:33:32;33.30;54.20
46562;DHT22;32289;42.688;23.330;2023-06-22T09:37:13;33.20;53.60
46562;DHT22;32289;42.688;23.330;2023-06-22T09:40:53;33.50;54.00
46562;DHT22;32289;42.688;23.330;2023-06-22T09:44:34;31.40;55.50
46562;DHT22;32289;42.688;23.330;2023-06-22T09:48:15;30.70;58.10
46562;DHT22;32289;42.688;23.330;2023-06-22T09:51:56;31.30;56.90
46562;DHT22;32289;42.688;23.330;2023-06-22T09:55:36;32.50;56.00
46562;DHT22;32289;42.688;23.330;2023-06-22T09:59:17;32.50;56.20
46562;DHT22;32289;42.688;23.330;2023-06-22T10:02:58;32.70;55.50
46562;DHT22;32289;42.688;23.330;2023-06-22T10:06:39;34.50;52.20
46562;DHT22;32289;42.688;23.330;2023-06-22T10:10:21;33.40;51.20
46562;DHT22;32289;42.688;23.330;2023-06-22T10:14:01;35.10;49.60
46562;DHT22;32289;42.688;23.330;2023-06-22T10:17:44;33.10;51.40
46562;DHT22;32289;42.688;23.330;2023-06-22T10:21:25;32.80;53.70
46562;DHT22;32289;42.688;23.330;2023-06-22T10:25:10;33.30;53.50
46562;DHT22;32289;42.688;23.330;2023-06-22T10:28:50;32.40;54.30
46562;DHT22;32289;42.688;23.330;2023-06-22T10:32:31;32.60;54.40
46562;DHT22;32289;42.688;23.330;2023-06-22T10:36:12;31.90;53.50
46562;DHT22;32289;42.688;23.330;2023-06-22T10:39:53;33.00;53.20
46562;DHT22;32289;42.688;23.330;2023-06-22T10:43:33;33.00;52.70
46562;DHT22;32289;42.688;23.330;2023-06-22T10:47:14;31.90;53.20
46562;DHT22;32289;42.688;23.330;2023-06-22T10:50:55;32.50;53.40
46562;DHT22;32289;42.688;23.330;2023-06-22T10:54:37;32.50;52.70
46562;DHT22;32289;42.688;23.330;2023-06-22T10:58:18;33.30;50.00
46562;DHT22;32289;42.688;23.330;2023-06-22T11:01:59;33.80;50.80
46562;DHT22;32289;42.688;23.330;2023-06-22T11:05:44;32.70;51.70
46562;DHT22;32289;42.688;23.330;2023-06-22T11:09:26;32.30;52.80
46562;DHT22;32289;42.688;23.330;2023-06-22T11:13:07;31.50;52.00
46562;DHT22;32289;42.688;23.330;2023-06-22T11:16:50;31.60;52.30
46562;DHT22;32289;42.688;23.330;2023-06-22T11:20:31;31.20;54.10
46562;DHT22;32289;42.688;23.330;2023-06-22T11:24:14;30.60;55.10
46562;DHT22;32289;42.688;23.330;2023-06-22T11:27:56;31.10;55.50
46562;DHT22;32289;42.688;23.330;2023-06-22T11:31:37;31.70;53.70
46562;DHT22;32289;42.688;23.330;2023-06-22T11:35:18;31.30;54.00
46562;DHT22;32289;42.688;23.330;2023-06-22T11:38:59;30.40;53.10
46562;DHT22;32289;42.688;23.330;2023-06-22T11:42:39;30.20;54.40
46562;DHT22;32289;42.688;23.330;2023-06-22T11:46:20;30.10;53.90
46562;DHT22;32289;42.688;23.330;2023-06-22T11:50:01;30.50;56.40
46562;DHT22;32289;42.688;23.330;2023-06-22T11:53:42;30.40;55.30
46562;DHT22;32289;42.688;23.330;2023-06-22T11:57:23;30.10;55.80
46562;DHT22;32289;42.688;23.330;2023-06-22T12:01:03;30.20;56.90
46562;DHT22;32289;42.688;23.330;2023-06-22T12:04:45;30.30;57.50
46562;DHT22;32289;42.688;23.330;2023-06-22T12:08:26;30.40;57.10
46562;DHT22;32289;42.688;23.330;2023-06-22T12:12:07;30.40;57.70
46562;DHT22;32289;42.688;23.330;2023-06-22T12:15:48;30.30;57.30
46562;DHT22;32289;42.688;23.330;2023-06-22T12:19:29;29.60;59.40
46562;DHT22;32289;42.688;23.330;2023-06-22T12:23:10;29.10;61.50
46562;DHT22;32289;42.688;23.330;2023-06-22T12:26:50;28.90;65.60
46562;DHT22;32289;42.688;23.330;2023-06-22T12:30:33;28.40;65.20
46562;DHT22;32289;42.688;23.330;2023-06-22T12:34:14;28.00;68.60
46562;DHT22;32289;42.688;23.330;2023-06-22T12:37:55;27.50;69.80
46562;DHT22;32289;42.688;23.330;2023-06-22T12:41:35;27.20;72.60
46562;DHT22;32289;42.688;23.330;2023-06-22T12:45:16;26.60;76.80
46562;DHT22;32289;42.688;23.330;2023-06-22T12:48:57;27.00;77.80
46562;DHT22;32289;42.688;23.330;2023-06-22T12:52:39;27.10;77.30
46562;DHT22;32289;42.688;23.330;2023-06-22T12:56:53;27.00;78.30
46562;DHT22;32289;42.688;23.330;2023-06-22T13:00:33;27.00;77.70
46562;DHT22;32289;42.688;23.330;2023-06-22T13:04:14;26.50;83.10
46562;DHT22;32289;42.688;23.330;2023-06-22T13:07:55;25.40;95.70
46562;DHT22;32289;42.688;23.330;2023-06-22T13:11:36;24.90;99.90
46562;DHT22;32289;42.688;23.330;2023-06-22T17:06:02;24.50;99.90
46562;DHT22;32289;42.688;23.330;2023-06-22T17:09:48;24.60;99.70
46562;DHT22;32289;42.688;23.330;2023-06-22T17:13:29;24.50;99.90
46562;DHT22;32289;42.688;23.330;2023-06-22T17:31:09;24.40;99.90
46562;DHT22;32289;42.688;23.330;2023-06-22T17:39:28;23.90;99.90
46562;DHT22;32289;42.688;23.330;2023-06-22T17:56:40;23.70;99.90
46562;DHT22;32289;42.688;23.330;2023-06-22T18:09:21;23.40;99.90
46562;DHT22;32289;42.688;23.330;2023-06-22T18:13:02;23.20;99.90
46562;DHT22;32289;42.688;23.330;2023-06-22T18:30:42;23.40;99.90
46562;DHT22;32289;42.688;23.330;2023-06-22T18:52:40;22.60;99.90
46562;DHT22;32289;42.688;23.330;2023-06-22T18:56:20;22.50;99.90
46562;DHT22;32289;42.688;23.330;2023-06-22T19:00:05;22.50;99.90
46562;DHT22;32289;42.688;23.330;2023-06-22T19:04:32;22.40;99.90
46562;DHT22;32289;42.688;23.330;2023-06-22T19:40:02;22.00;99.90
46562;DHT22;32289;42.688;23.330;2023-06-22T19:43:45;21.90;99.90
46562;DHT22;32289;42.688;23.330;2023-06-22T19:47:26;21.70;99.90
46562;DHT22;32289;42.688;23.330;2023-06-22T20:13:52;21.30;99.90
46562;DHT22;32289;42.688;23.330;2023-06-22T20:18:16;21.20;99.90
46562;DHT22;32289;42.688;23.330;2023-06-22T21:52:20;19.80;99.90
46562;DHT22;32289;42.688;23.330;2023-06-22T21:56:02;19.80;99.90
46562;DHT22;32289;42.688;23.330;2023-06-22T21:59:42;19.90;99.90
46562;DHT22;32289;42.688;23.330;2023-06-22T22:03:23;19.80;99.90
46562;DHT22;32289;42.688;23.330;2023-06-22T22:07:07;19.90;99.90
46562;DHT22;32289;42.688;23.330;2023-06-22T22:10:48;19.90;99.90
46562;DHT22;32289;42.688;23.330;2023-06-22T22:14:31;19.70;99.90
46562;DHT22;32289;42.688;23.330;2023-06-22T22:18:12;19.80;99.90
46562;DHT22;32289;42.688;23.330;2023-06-22T22:21:53;19.60;99.90
46562;DHT22;32289;42.688;23.330;2023-06-22T22:25:33;19.70;99.90
46562;DHT22;32289;42.688;23.330;2023-06-22T22:29:14;19.80;99.90
46562;DHT22;32289;42.688;23.330;2023-06-22T22:32:55;19.60;99.90
46562;DHT22;32289;42.688;23.330;2023-06-22T22:36:36;19.60;99.90
46562;DHT22;32289;42.688;23.330;2023-06-22T22:40:19;19.70;99.90
46562;DHT22;32289;42.688;23.330;2023-06-22T22:48:36;19.50;99.90
46562;DHT22;32289;42.688;23.330;2023-06-22T22:52:22;19.50;99.90
46562;DHT22;32289;42.688;23.330;2023-06-22T22:56:03;19.50;99.90
46562;DHT22;32289;42.688;23.330;2023-06-22T23:04:20;19.50;99.90
46562;DHT22;32289;42.688;23.330;2023-06-22T23:08:01;19.50;99.90
46562;DHT22;32289;42.688;23.330;2023-06-22T23:12:06;19.30;99.90
46562;DHT22;32289;42.688;23.330;2023-06-22T23:15:46;19.20;99.90
46562;DHT22;32289;42.688;23.330;2023-06-22T23:19:30;19.20;99.90
46562;DHT22;32289;42.688;23.330;2023-06-22T23:23:13;19.00;99.90
46562;DHT22;32289;42.688;23.330;2023-06-22T23:26:54;18.80;99.90
46562;DHT22;32289;42.688;23.330;2023-06-22T23:30:37;18.90;99.90
46562;DHT22;32289;42.688;23.330;2023-06-22T23:34:18;18.90;99.90
46562;DHT22;32289;42.688;23.330;2023-06-22T23:37:58;18.90;99.90
46562;DHT22;32289;42.688;23.330;2023-06-22T23:46:16;19.00;99.90
46562;DHT22;32289;42.688;23.330;2023-06-22T23:49:57;18.90;99.90
46562;DHT22;32289;42.688;23.330;2023-06-22T23:53:37;18.90;99.90
46562;DHT22;32289;42.688;23.330;2023-06-22T23:57:18;18.80;99.90
